sensor_id;sensor_type;location;lat;lon;timestamp;temperature;humidity
27801;DHT22;15181;49.112;11.930;2022-11-15T00:02:19;2.70;99.90
27801;DHT22;15181;49.112;11.930;2022-11-15T00:04:46;2.70;99.90
27801;DHT22;15181;49.112;11.930;2022-11-15T00:07:13;2.80;99.90
27801;DHT22;15181;49.112;11.930;2022-11-15T00:09:40;2.80;99.90
27801;DHT22;15181;49.112;11.930;2022-11-15T00:12:09;2.80;99.90
27801;DHT22;15181;49.112;11.930;2022-11-15T00:14:37;2.90;99.90
27801;DHT22;15181;49.112;11.930;2022-11-15T00:17:04;2.70;99.90
27801;DHT22;15181;49.112;11.930;2022-11-15T00:19:31;2.60;99.90
27801;DHT22;15181;49.112;11.930;2022-11-15T00:21:58;2.50;99.90
27801;DHT22;15181;49.112;11.930;2022-11-15T00:24:25;2.60;99.90
27801;DHT22;15181;49.112;11.930;2022-11-15T00:26:53;2.60;99.90
27801;DHT22;15181;49.112;11.930;2022-11-15T00:29:22;2.60;99.90
27801;DHT22;15181;49.112;11.930;2022-11-15T00:31:49;2.60;99.90
27801;DHT22;15181;49.112;11.930;2022-11-15T00:34:16;2.50;99.90
27801;DHT22;15181;49.112;11.930;2022-11-15T00:36:43;2.40;99.90
27801;DHT22;15181;49.112;11.930;2022-11-15T00:39:10;2.40;99.90
27801;DHT22;15181;49.112;11.930;2022-11-15T00:41:37;2.30;99.90
27801;DHT22;15181;49.112;11.930;2022-11-15T00:44:04;2.20;99.90
27801;DHT22;15181;49.112;11.930;2022-11-15T00:46:33;2.20;99.90
27801;DHT22;15181;49.112;11.930;2022-11-15T00:49:03;2.10;99.90
27801;DHT22;15181;49.112;11.930;2022-11-15T00:51:30;2.10;99.90
27801;DHT22;15181;49.112;11.930;2022-11-15T00:53:58;2.10;99.90
27801;DHT22;15181;49.112;11.930;2022-11-15T00:56:25;2.10;99.90
27801;DHT22;15181;49.112;11.930;2022-11-15T00:58:53;2.20;99.90
27801;DHT22;15181;49.112;11.930;2022-11-15T01:01:20;2.20;99.90
27801;DHT22;15181;49.112;11.930;2022-11-15T01:03:48;2.30;99.90
27801;DHT22;15181;49.112;11.930;2022-11-15T01:06:16;2.20;99.90
27801;DHT22;15181;49.112;11.930;2022-11-15T01:08:42;2.20;99.90
27801;DHT22;15181;49.112;11.930;2022-11-15T01:11:11;2.30;99.90
27801;DHT22;15181;49.112;11.930;2022-11-15T01:13:39;2.30;99.90
27801;DHT22;15181;49.112;11.930;2022-11-15T01:16:08;2.40;99.90
27801;DHT22;15181;49.112;11.930;2022-11-15T01:18:35;2.40;99.90
27801;DHT22;15181;49.112;11.930;2022-11-15T01:21:17;2.40;99.90
27801;DHT22;15181;49.112;11.930;2022-11-15T01:23:44;2.20;99.90
27801;DHT22;15181;49.112;11.930;2022-11-15T01:26:14;2.10;99.90
27801;DHT22;15181;49.112;11.930;2022-11-15T01:28:41;2.10;99.90
27801;DHT22;15181;49.112;11.930;2022-11-15T01:31:12;2.10;99.90
27801;DHT22;15181;49.112;11.930;2022-11-15T01:33:42;2.00;99.90
27801;DHT22;15181;49.112;11.930;2022-11-15T01:36:14;1.90;99.90
27801;DHT22;15181;49.112;11.930;2022-11-15T01:38:41;1.90;99.90
27801;DHT22;15181;49.112;11.930;2022-11-15T01:41:14;1.80;99.90
27801;DHT22;15181;49.112;11.930;2022-11-15T01:43:42;1.80;99.90
27801;DHT22;15181;49.112;11.930;2022-11-15T01:46:22;1.80;99.90
27801;DHT22;15181;49.112;11.930;2022-11-15T01:48:51;1.90;99.90
27801;DHT22;15181;49.112;11.930;2022-11-15T01:51:23;2.00;99.90
27801;DHT22;15181;49.112;11.930;2022-11-15T01:53:55;2.10;99.90
27801;DHT22;15181;49.112;11.930;2022-11-15T01:56:27;2.10;99.90
27801;DHT22;15181;49.112;11.930;2022-11-15T01:58:57;2.10;99.90
27801;DHT22;15181;49.112;11.930;2022-11-15T02:01:26;2.10;99.90
27801;DHT22;15181;49.112;11.930;2022-11-15T02:03:59;2.20;99.90
27801;DHT22;15181;49.112;11.930;2022-11-15T02:06:28;2.20;99.90
27801;DHT22;15181;49.112;11.930;2022-11-15T02:08:56;2.20;99.90
27801;DHT22;15181;49.112;11.930;2022-11-15T02:11:23;2.30;99.90
27801;DHT22;15181;49.112;11.930;2022-11-15T02:13:51;2.30;99.90
27801;DHT22;15181;49.112;11.930;2022-11-15T02:16:27;2.30;99.90
27801;DHT22;15181;49.112;11.930;2022-11-15T02:19:02;2.40;99.90
27801;DHT22;15181;49.112;11.930;2022-11-15T02:21:55;2.40;99.90
27801;DHT22;15181;49.112;11.930;2022-11-15T02:25:01;2.40;99.90
27801;DHT22;15181;49.112;11.930;2022-11-15T02:27:49;2.40;99.90
27801;DHT22;15181;49.112;11.930;2022-11-15T02:30:32;2.40;99.90
27801;DHT22;15181;49.112;11.930;2022-11-15T02:33:09;2.50;99.90
27801;DHT22;15181;49.112;11.930;2022-11-15T02:35:52;2.50;99.90
27801;DHT22;15181;49.112;11.930;2022-11-15T02:38:29;2.50;99.90
27801;DHT22;15181;49.112;11.930;2022-11-15T02:41:00;2.50;99.90
27801;DHT22;15181;49.112;11.930;2022-11-15T02:43:31;2.50;99.90
27801;DHT22;15181;49.112;11.930;2022-11-15T02:46:23;2.50;99.90
27801;DHT22;15181;49.112;11.930;2022-11-15T02:49:11;2.50;99.90
27801;DHT22;15181;49.112;11.930;2022-11-15T02:51:41;2.60;99.90
27801;DHT22;15181;49.112;11.930;2022-11-15T02:54:12;2.50;99.90
27801;DHT22;15181;49.112;11.930;2022-11-15T02:56:39;2.50;99.90
27801;DHT22;15181;49.112;11.930;2022-11-15T02:59:22;2.40;99.90
27801;DHT22;15181;49.112;11.930;2022-11-15T03:02:02;2.20;99.90
27801;DHT22;15181;49.112;11.930;2022-11-15T03:04:39;2.10;99.90
27801;DHT22;15181;49.112;11.930;2022-11-15T03:07:14;2.10;99.90
27801;DHT22;15181;49.112;11.930;2022-11-15T03:09:49;2.10;99.90
27801;DHT22;15181;49.112;11.930;2022-11-15T03:12:23;2.00;99.90
27801;DHT22;15181;49.112;11.930;2022-11-15T03:14:56;1.90;99.90
27801;DHT22;15181;49.112;11.930;2022-11-15T03:17:29;2.00;99.90
27801;DHT22;15181;49.112;11.930;2022-11-15T03:19:58;2.00;99.90
27801;DHT22;15181;49.112;11.930;2022-11-15T03:22:27;2.00;99.90
27801;DHT22;15181;49.112;11.930;2022-11-15T03:24:58;2.00;99.90
27801;DHT22;15181;49.112;11.930;2022-11-15T03:27:28;2.10;99.90
27801;DHT22;15181;49.112;11.930;2022-11-15T03:30:00;2.10;99.90
27801;DHT22;15181;49.112;11.930;2022-11-15T03:32:31;2.10;99.90
27801;DHT22;15181;49.112;11.930;2022-11-15T03:35:05;2.10;99.90
27801;DHT22;15181;49.112;11.930;2022-11-15T03:37:37;2.10;99.90
27801;DHT22;15181;49.112;11.930;2022-11-15T03:40:08;2.10;99.90
27801;DHT22;15181;49.112;11.930;2022-11-15T03:42:40;2.10;99.90
27801;DHT22;15181;49.112;11.930;2022-11-15T03:45:14;2.10;99.90
27801;DHT22;15181;49.112;11.930;2022-11-15T03:47:47;2.10;99.90
27801;DHT22;15181;49.112;11.930;2022-11-15T03:50:19;1.80;99.90
27801;DHT22;15181;49.112;11.930;2022-11-15T03:52:48;1.80;99.90
27801;DHT22;15181;49.112;11.930;2022-11-15T03:55:18;1.70;99.90
27801;DHT22;15181;49.112;11.930;2022-11-15T03:57:47;1.60;99.90
27801;DHT22;15181;49.112;11.930;2022-11-15T04:00:15;1.60;99.90
27801;DHT22;15181;49.112;11.930;2022-11-15T04:02:44;1.50;99.90
27801;DHT22;15181;49.112;11.930;2022-11-15T04:05:11;1.50;99.90
27801;DHT22;15181;49.112;11.930;2022-11-15T04:07:38;1.50;99.90
27801;DHT22;15181;49.112;11.930;2022-11-15T04:10:06;1.50;99.90
27801;DHT22;15181;49.112;11.930;2022-11-15T04:12:35;1.60;99.90
27801;DHT22;15181;49.112;11.930;2022-11-15T04:15:05;1.70;99.90
27801;DHT22;15181;49.112;11.930;2022-11-15T04:17:37;1.70;99.90
27801;DHT22;15181;49.112;11.930;2022-11-15T04:20:08;1.80;99.90
27801;DHT22;15181;49.112;11.930;2022-11-15T04:22:54;1.70;99.90
27801;DHT22;15181;49.112;11.930;2022-11-15T04:25:39;1.80;99.90
27801;DHT22;15181;49.112;11.930;2022-11-15T04:28:08;1.70;99.90
27801;DHT22;15181;49.112;11.930;2022-11-15T04:30:38;1.50;99.90
27801;DHT22;15181;49.112;11.930;2022-11-15T04:33:05;1.40;99.90
27801;DHT22;15181;49.112;11.930;2022-11-15T04:35:34;1.40;99.90
27801;DHT22;15181;49.112;11.930;2022-11-15T04:38:02;1.40;99.90
27801;DHT22;15181;49.112;11.930;2022-11-15T04:40:30;1.40;99.90
27801;DHT22;15181;49.112;11.930;2022-11-15T04:42:57;1.40;99.90
27801;DHT22;15181;49.112;11.930;2022-11-15T04:45:24;1.40;99.90
27801;DHT22;15181;49.112;11.930;2022-11-15T04:47:52;1.30;99.90
27801;DHT22;15181;49.112;11.930;2022-11-15T04:50:19;1.30;99.90
27801;DHT22;15181;49.112;11.930;2022-11-15T04:52:52;1.20;99.90
27801;DHT22;15181;49.112;11.930;2022-11-15T04:55:20;1.30;99.90
27801;DHT22;15181;49.112;11.930;2022-11-15T04:57:47;1.30;99.90
27801;DHT22;15181;49.112;11.930;2022-11-15T05:00:16;1.30;99.90
27801;DHT22;15181;49.112;11.930;2022-11-15T05:02:43;1.40;99.90
27801;DHT22;15181;49.112;11.930;2022-11-15T05:05:27;1.50;99.90
27801;DHT22;15181;49.112;11.930;2022-11-15T05:07:56;1.50;99.90
27801;DHT22;15181;49.112;11.930;2022-11-15T05:10:23;1.60;99.90
27801;DHT22;15181;49.112;11.930;2022-11-15T05:12:50;1.60;99.90
27801;DHT22;15181;49.112;11.930;2022-11-15T05:15:17;1.60;99.90
27801;DHT22;15181;49.112;11.930;2022-11-15T05:17:44;1.40;99.90
27801;DHT22;15181;49.112;11.930;2022-11-15T05:20:11;1.30;99.90
27801;DHT22;15181;49.112;11.930;2022-11-15T05:22:39;1.40;99.90
27801;DHT22;15181;49.112;11.930;2022-11-15T05:25:08;1.40;99.90
27801;DHT22;15181;49.112;11.930;2022-11-15T05:27:35;1.50;99.90
27801;DHT22;15181;49.112;11.930;2022-11-15T05:30:02;1.40;99.90
27801;DHT22;15181;49.112;11.930;2022-11-15T05:32:29;1.30;99.90
27801;DHT22;15181;49.112;11.930;2022-11-15T05:34:56;1.30;99.90
27801;DHT22;15181;49.112;11.930;2022-11-15T05:37:23;1.20;99.90
27801;DHT22;15181;49.112;11.930;2022-11-15T05:39:50;1.20;99.90
27801;DHT22;15181;49.112;11.930;2022-11-15T05:42:19;1.20;99.90
27801;DHT22;15181;49.112;11.930;2022-11-15T05:44:48;1.30;99.90
27801;DHT22;15181;49.112;11.930;2022-11-15T05:47:18;1.30;99.90
27801;DHT22;15181;49.112;11.930;2022-11-15T05:49:47;1.30;99.90
27801;DHT22;15181;49.112;11.930;2022-11-15T05:52:18;1.20;99.90
27801;DHT22;15181;49.112;11.930;2022-11-15T05:54:47;1.10;99.90
27801;DHT22;15181;49.112;11.930;2022-11-15T05:57:15;1.20;99.90
27801;DHT22;15181;49.112;11.930;2022-11-15T05:59:43;1.20;99.90
27801;DHT22;15181;49.112;11.930;2022-11-15T06:02:11;1.30;99.90
27801;DHT22;15181;49.112;11.930;2022-11-15T06:04:39;1.30;99.90
27801;DHT22;15181;49.112;11.930;2022-11-15T06:07:06;1.40;99.90
27801;DHT22;15181;49.112;11.930;2022-11-15T06:09:33;1.30;99.90
27801;DHT22;15181;49.112;11.930;2022-11-15T06:12:00;1.30;99.90
27801;DHT22;15181;49.112;11.930;2022-11-15T06:14:27;1.20;99.90
27801;DHT22;15181;49.112;11.930;2022-11-15T06:16:57;1.10;99.90
27801;DHT22;15181;49.112;11.930;2022-11-15T06:19:24;1.20;99.90
27801;DHT22;15181;49.112;11.930;2022-11-15T06:21:51;1.20;99.90
27801;DHT22;15181;49.112;11.930;2022-11-15T06:24:19;1.10;99.90
27801;DHT22;15181;49.112;11.930;2022-11-15T06:26:46;1.10;99.90
27801;DHT22;15181;49.112;11.930;2022-11-15T06:29:13;1.10;99.90
27801;DHT22;15181;49.112;11.930;2022-11-15T06:31:40;1.10;99.90
27801;DHT22;15181;49.112;11.930;2022-11-15T06:34:08;1.20;99.90
27801;DHT22;15181;49.112;11.930;2022-11-15T06:36:36;1.20;99.90
27801;DHT22;15181;49.112;11.930;2022-11-15T06:39:03;1.30;99.90
27801;DHT22;15181;49.112;11.930;2022-11-15T06:41:33;1.30;99.90
27801;DHT22;15181;49.112;11.930;2022-11-15T06:44:01;1.40;99.90
27801;DHT22;15181;49.112;11.930;2022-11-15T06:46:28;1.40;99.90
27801;DHT22;15181;49.112;11.930;2022-11-15T06:48:55;1.40;99.90
27801;DHT22;15181;49.112;11.930;2022-11-15T06:51:24;1.40;99.90
27801;DHT22;15181;49.112;11.930;2022-11-15T06:53:51;1.30;99.90
27801;DHT22;15181;49.112;11.930;2022-11-15T06:56:18;1.30;99.90
27801;DHT22;15181;49.112;11.930;2022-11-15T06:58:45;1.20;99.90
27801;DHT22;15181;49.112;11.930;2022-11-15T07:01:13;1.10;99.90
27801;DHT22;15181;49.112;11.930;2022-11-15T07:03:41;1.10;99.90
27801;DHT22;15181;49.112;11.930;2022-11-15T07:06:09;1.10;99.90
27801;DHT22;15181;49.112;11.930;2022-11-15T07:08:38;1.10;99.90
27801;DHT22;15181;49.112;11.930;2022-11-15T07:11:07;1.20;99.90
27801;DHT22;15181;49.112;11.930;2022-11-15T07:13:35;1.30;99.90
27801;DHT22;15181;49.112;11.930;2022-11-15T07:16:04;1.40;99.90
27801;DHT22;15181;49.112;11.930;2022-11-15T07:18:34;1.40;99.90
27801;DHT22;15181;49.112;11.930;2022-11-15T07:21:03;1.40;99.90
27801;DHT22;15181;49.112;11.930;2022-11-15T07:23:31;1.50;99.90
27801;DHT22;15181;49.112;11.930;2022-11-15T07:26:00;1.50;99.90
27801;DHT22;15181;49.112;11.930;2022-11-15T07:28:27;1.60;99.90
27801;DHT22;15181;49.112;11.930;2022-11-15T07:30:54;1.60;99.90
27801;DHT22;15181;49.112;11.930;2022-11-15T07:33:22;1.60;99.90
27801;DHT22;15181;49.112;11.930;2022-11-15T07:35:50;1.60;99.90
27801;DHT22;15181;49.112;11.930;2022-11-15T07:38:18;1.60;99.90
27801;DHT22;15181;49.112;11.930;2022-11-15T07:40:46;1.50;99.90
27801;DHT22;15181;49.112;11.930;2022-11-15T07:43:15;1.60;99.90
27801;DHT22;15181;49.112;11.930;2022-11-15T07:45:43;1.50;99.90
27801;DHT22;15181;49.112;11.930;2022-11-15T07:48:11;1.40;99.90
27801;DHT22;15181;49.112;11.930;2022-11-15T07:50:40;1.40;99.90
27801;DHT22;15181;49.112;11.930;2022-11-15T07:53:08;1.40;99.90
27801;DHT22;15181;49.112;11.930;2022-11-15T07:55:36;1.40;99.90
27801;DHT22;15181;49.112;11.930;2022-11-15T07:58:05;1.50;99.90
27801;DHT22;15181;49.112;11.930;2022-11-15T08:00:35;1.60;99.90
27801;DHT22;15181;49.112;11.930;2022-11-15T08:03:04;1.70;99.90
27801;DHT22;15181;49.112;11.930;2022-11-15T08:05:32;1.90;99.90
27801;DHT22;15181;49.112;11.930;2022-11-15T08:07:59;2.00;99.90
27801;DHT22;15181;49.112;11.930;2022-11-15T08:10:27;2.00;99.90
27801;DHT22;15181;49.112;11.930;2022-11-15T08:12:59;2.20;99.90
27801;DHT22;15181;49.112;11.930;2022-11-15T08:15:27;2.20;99.90
27801;DHT22;15181;49.112;11.930;2022-11-15T08:17:56;2.30;99.90
27801;DHT22;15181;49.112;11.930;2022-11-15T08:20:24;2.40;99.90
27801;DHT22;15181;49.112;11.930;2022-11-15T08:22:52;2.50;99.90
27801;DHT22;15181;49.112;11.930;2022-11-15T08:25:19;2.50;99.90
27801;DHT22;15181;49.112;11.930;2022-11-15T08:27:46;2.60;99.90
27801;DHT22;15181;49.112;11.930;2022-11-15T08:30:13;2.70;99.90
27801;DHT22;15181;49.112;11.930;2022-11-15T08:32:41;2.70;99.90
27801;DHT22;15181;49.112;11.930;2022-11-15T08:35:10;2.80;99.90
27801;DHT22;15181;49.112;11.930;2022-11-15T08:37:37;2.80;99.90
27801;DHT22;15181;49.112;11.930;2022-11-15T08:40:06;2.80;99.90
27801;DHT22;15181;49.112;11.930;2022-11-15T08:42:35;2.90;99.90
27801;DHT22;15181;49.112;11.930;2022-11-15T08:45:04;3.00;99.90
27801;DHT22;15181;49.112;11.930;2022-11-15T08:47:31;2.90;99.90
27801;DHT22;15181;49.112;11.930;2022-11-15T08:49:58;2.90;99.90
27801;DHT22;15181;49.112;11.930;2022-11-15T08:52:27;3.00;99.90
27801;DHT22;15181;49.112;11.930;2022-11-15T08:54:54;3.10;99.90
27801;DHT22;15181;49.112;11.930;2022-11-15T08:57:21;3.20;99.90
27801;DHT22;15181;49.112;11.930;2022-11-15T08:59:48;3.30;99.90
27801;DHT22;15181;49.112;11.930;2022-11-15T09:02:15;3.40;99.90
27801;DHT22;15181;49.112;11.930;2022-11-15T09:04:43;3.40;99.90
27801;DHT22;15181;49.112;11.930;2022-11-15T09:07:11;3.50;99.90
27801;DHT22;15181;49.112;11.930;2022-11-15T09:09:40;3.60;99.90
27801;DHT22;15181;49.112;11.930;2022-11-15T09:12:07;3.80;99.90
27801;DHT22;15181;49.112;11.930;2022-11-15T09:14:34;3.90;99.90
27801;DHT22;15181;49.112;11.930;2022-11-15T09:17:02;3.90;99.90
27801;DHT22;15181;49.112;11.930;2022-11-15T09:19:29;3.90;99.90
27801;DHT22;15181;49.112;11.930;2022-11-15T09:21:56;4.10;99.90
27801;DHT22;15181;49.112;11.930;2022-11-15T09:24:23;4.20;99.90
27801;DHT22;15181;49.112;11.930;2022-11-15T09:26:52;4.30;99.90
27801;DHT22;15181;49.112;11.930;2022-11-15T09:29:19;4.60;99.90
27801;DHT22;15181;49.112;11.930;2022-11-15T09:31:46;4.60;99.90
27801;DHT22;15181;49.112;11.930;2022-11-15T09:34:13;4.70;99.90
27801;DHT22;15181;49.112;11.930;2022-11-15T09:36:40;4.80;99.90
27801;DHT22;15181;49.112;11.930;2022-11-15T09:39:07;4.90;99.90
27801;DHT22;15181;49.112;11.930;2022-11-15T09:41:48;5.00;99.90
27801;DHT22;15181;49.112;11.930;2022-11-15T09:44:33;5.10;99.90
27801;DHT22;15181;49.112;11.930;2022-11-15T09:49:53;5.30;99.90
27801;DHT22;15181;49.112;11.930;2022-11-15T09:52:21;5.40;99.90
27801;DHT22;15181;49.112;11.930;2022-11-15T09:54:51;5.50;99.90
27801;DHT22;15181;49.112;11.930;2022-11-15T09:57:22;5.70;99.90
27801;DHT22;15181;49.112;11.930;2022-11-15T10:00:09;5.80;99.90
27801;DHT22;15181;49.112;11.930;2022-11-15T10:02:47;5.90;99.90
27801;DHT22;15181;49.112;11.930;2022-11-15T10:05:19;6.00;99.90
27801;DHT22;15181;49.112;11.930;2022-11-15T10:07:52;6.10;99.90
27801;DHT22;15181;49.112;11.930;2022-11-15T10:10:27;6.20;99.90
27801;DHT22;15181;49.112;11.930;2022-11-15T10:12:56;6.20;99.90
27801;DHT22;15181;49.112;11.930;2022-11-15T10:15:25;6.30;99.90
27801;DHT22;15181;49.112;11.930;2022-11-15T10:18:14;6.40;99.90
27801;DHT22;15181;49.112;11.930;2022-11-15T10:20:47;6.50;99.90
27801;DHT22;15181;49.112;11.930;2022-11-15T10:23:18;6.60;99.90
27801;DHT22;15181;49.112;11.930;2022-11-15T10:25:46;6.70;99.90
27801;DHT22;15181;49.112;11.930;2022-11-15T10:28:16;6.80;99.90
27801;DHT22;15181;49.112;11.930;2022-11-15T10:30:48;6.90;99.90
27801;DHT22;15181;49.112;11.930;2022-11-15T10:33:25;7.00;99.90
27801;DHT22;15181;49.112;11.930;2022-11-15T10:36:19;7.10;99.90
27801;DHT22;15181;49.112;11.930;2022-11-15T10:38:55;7.20;99.90
27801;DHT22;15181;49.112;11.930;2022-11-15T10:41:30;7.40;99.90
27801;DHT22;15181;49.112;11.930;2022-11-15T10:47:23;7.60;99.90
27801;DHT22;15181;49.112;11.930;2022-11-15T10:49:54;7.70;99.90
27801;DHT22;15181;49.112;11.930;2022-11-15T10:52:22;7.90;99.90
27801;DHT22;15181;49.112;11.930;2022-11-15T10:54:54;8.00;99.90
27801;DHT22;15181;49.112;11.930;2022-11-15T10:57:26;8.10;99.90
27801;DHT22;15181;49.112;11.930;2022-11-15T10:59:56;8.20;99.90
27801;DHT22;15181;49.112;11.930;2022-11-15T11:02:33;8.30;99.90
27801;DHT22;15181;49.112;11.930;2022-11-15T11:05:02;8.40;99.90
27801;DHT22;15181;49.112;11.930;2022-11-15T11:07:30;8.50;99.90
27801;DHT22;15181;49.112;11.930;2022-11-15T11:10:00;8.50;99.90
27801;DHT22;15181;49.112;11.930;2022-11-15T11:12:30;8.60;99.90
27801;DHT22;15181;49.112;11.930;2022-11-15T11:14:59;8.70;99.90
27801;DHT22;15181;49.112;11.930;2022-11-15T11:17:41;8.90;99.90
27801;DHT22;15181;49.112;11.930;2022-11-15T11:20:20;9.00;99.90
27801;DHT22;15181;49.112;11.930;2022-11-15T11:23:03;9.00;99.90
27801;DHT22;15181;49.112;11.930;2022-11-15T11:25:34;9.10;99.90
27801;DHT22;15181;49.112;11.930;2022-11-15T11:28:19;9.20;99.90
27801;DHT22;15181;49.112;11.930;2022-11-15T11:30:58;9.30;99.90
27801;DHT22;15181;49.112;11.930;2022-11-15T11:33:31;9.30;99.90
27801;DHT22;15181;49.112;11.930;2022-11-15T11:36:07;9.50;99.90
27801;DHT22;15181;49.112;11.930;2022-11-15T11:38:49;9.50;99.90
27801;DHT22;15181;49.112;11.930;2022-11-15T11:41:30;9.60;99.90
27801;DHT22;15181;49.112;11.930;2022-11-15T11:44:11;9.70;99.90
27801;DHT22;15181;49.112;11.930;2022-11-15T11:46:48;9.80;99.90
27801;DHT22;15181;49.112;11.930;2022-11-15T11:49:24;9.80;99.90
27801;DHT22;15181;49.112;11.930;2022-11-15T11:51:55;9.90;99.90
27801;DHT22;15181;49.112;11.930;2022-11-15T11:54:31;10.00;99.90
27801;DHT22;15181;49.112;11.930;2022-11-15T11:57:05;10.10;99.90
27801;DHT22;15181;49.112;11.930;2022-11-15T11:59:37;10.10;99.90
27801;DHT22;15181;49.112;11.930;2022-11-15T12:02:14;10.10;99.90
27801;DHT22;15181;49.112;11.930;2022-11-15T12:04:47;10.20;99.90
27801;DHT22;15181;49.112;11.930;2022-11-15T12:07:19;10.20;99.90
27801;DHT22;15181;49.112;11.930;2022-11-15T12:09:53;10.30;99.90
27801;DHT22;15181;49.112;11.930;2022-11-15T12:12:27;10.30;99.90
27801;DHT22;15181;49.112;11.930;2022-11-15T12:15:01;10.40;99.90
27801;DHT22;15181;49.112;11.930;2022-11-15T12:17:30;10.40;99.90
27801;DHT22;15181;49.112;11.930;2022-11-15T12:22:35;10.60;99.90
27801;DHT22;15181;49.112;11.930;2022-11-15T12:25:07;10.60;99.90
27801;DHT22;15181;49.112;11.930;2022-11-15T12:27:38;10.60;99.90
27801;DHT22;15181;49.112;11.930;2022-11-15T12:30:11;10.60;99.90
27801;DHT22;15181;49.112;11.930;2022-11-15T12:32:40;10.60;99.90
27801;DHT22;15181;49.112;11.930;2022-11-15T12:35:26;10.60;99.90
27801;DHT22;15181;49.112;11.930;2022-11-15T12:37:53;10.60;99.90
27801;DHT22;15181;49.112;11.930;2022-11-15T12:40:32;10.60;99.90
27801;DHT22;15181;49.112;11.930;2022-11-15T12:45:45;10.70;99.90
27801;DHT22;15181;49.112;11.930;2022-11-15T12:54:52;10.70;99.90
27801;DHT22;15181;49.112;11.930;2022-11-15T12:57:31;10.70;99.90
27801;DHT22;15181;49.112;11.930;2022-11-15T13:00:00;10.70;99.90
27801;DHT22;15181;49.112;11.930;2022-11-15T13:02:30;10.70;99.90
27801;DHT22;15181;49.112;11.930;2022-11-15T13:08:00;10.90;99.90
27801;DHT22;15181;49.112;11.930;2022-11-15T13:10:31;10.90;99.90
27801;DHT22;15181;49.112;11.930;2022-11-15T13:12:59;10.90;99.90
27801;DHT22;15181;49.112;11.930;2022-11-15T13:15:52;11.00;99.90
27801;DHT22;15181;49.112;11.930;2022-11-15T13:18:36;11.10;99.90
27801;DHT22;15181;49.112;11.930;2022-11-15T13:21:19;11.10;99.90
27801;DHT22;15181;49.112;11.930;2022-11-15T13:24:04;11.20;99.90
27801;DHT22;15181;49.112;11.930;2022-11-15T13:26:34;11.20;99.90
27801;DHT22;15181;49.112;11.930;2022-11-15T13:29:01;11.20;99.90
27801;DHT22;15181;49.112;11.930;2022-11-15T13:31:30;11.10;99.90
27801;DHT22;15181;49.112;11.930;2022-11-15T13:34:03;11.10;99.90
27801;DHT22;15181;49.112;11.930;2022-11-15T13:36:32;11.20;99.90
27801;DHT22;15181;49.112;11.930;2022-11-15T13:39:03;11.20;99.90
27801;DHT22;15181;49.112;11.930;2022-11-15T13:41:34;11.20;99.90
27801;DHT22;15181;49.112;11.930;2022-11-15T13:44:03;11.20;99.90
27801;DHT22;15181;49.112;11.930;2022-11-15T13:46:31;11.30;99.90
27801;DHT22;15181;49.112;11.930;2022-11-15T13:49:01;11.30;99.90
27801;DHT22;15181;49.112;11.930;2022-11-15T13:51:33;11.30;99.90
27801;DHT22;15181;49.112;11.930;2022-11-15T13:54:08;11.30;99.90
27801;DHT22;15181;49.112;11.930;2022-11-15T13:56:37;11.30;99.90
27801;DHT22;15181;49.112;11.930;2022-11-15T13:59:11;11.20;99.90
27801;DHT22;15181;49.112;11.930;2022-11-15T14:01:41;11.20;99.90
27801;DHT22;15181;49.112;11.930;2022-11-15T14:04:13;11.20;99.90
27801;DHT22;15181;49.112;11.930;2022-11-15T14:06:46;11.20;99.90
27801;DHT22;15181;49.112;11.930;2022-11-15T14:09:35;11.10;99.90
27801;DHT22;15181;49.112;11.930;2022-11-15T14:12:29;11.00;99.90
27801;DHT22;15181;49.112;11.930;2022-11-15T14:14:58;10.90;99.90
27801;DHT22;15181;49.112;11.930;2022-11-15T14:17:37;10.80;99.90
27801;DHT22;15181;49.112;11.930;2022-11-15T14:20:31;10.60;99.90
27801;DHT22;15181;49.112;11.930;2022-11-15T14:23:01;10.50;99.90
27801;DHT22;15181;49.112;11.930;2022-11-15T14:25:29;10.40;99.90
27801;DHT22;15181;49.112;11.930;2022-11-15T14:28:29;10.30;99.90
27801;DHT22;15181;49.112;11.930;2022-11-15T14:30:59;10.20;99.90
27801;DHT22;15181;49.112;11.930;2022-11-15T14:33:28;10.10;99.90
27801;DHT22;15181;49.112;11.930;2022-11-15T14:35:57;10.10;99.90
27801;DHT22;15181;49.112;11.930;2022-11-15T14:38:25;10.00;99.90
27801;DHT22;15181;49.112;11.930;2022-11-15T14:40:53;10.00;99.90
27801;DHT22;15181;49.112;11.930;2022-11-15T14:43:23;9.80;99.90
27801;DHT22;15181;49.112;11.930;2022-11-15T14:45:50;9.80;99.90
27801;DHT22;15181;49.112;11.930;2022-11-15T14:48:17;9.70;99.90
27801;DHT22;15181;49.112;11.930;2022-11-15T14:50:44;9.60;99.90
27801;DHT22;15181;49.112;11.930;2022-11-15T14:53:13;9.60;99.90
27801;DHT22;15181;49.112;11.930;2022-11-15T14:55:41;9.60;99.90
27801;DHT22;15181;49.112;11.930;2022-11-15T14:58:09;9.50;99.90
27801;DHT22;15181;49.112;11.930;2022-11-15T15:00:40;9.40;99.90
27801;DHT22;15181;49.112;11.930;2022-11-15T15:03:07;9.30;99.90
27801;DHT22;15181;49.112;11.930;2022-11-15T15:05:36;9.20;99.90
27801;DHT22;15181;49.112;11.930;2022-11-15T15:08:05;9.10;99.90
27801;DHT22;15181;49.112;11.930;2022-11-15T15:10:34;9.00;99.90
27801;DHT22;15181;49.112;11.930;2022-11-15T15:13:03;9.10;99.90
27801;DHT22;15181;49.112;11.930;2022-11-15T15:15:32;8.90;99.90
27801;DHT22;15181;49.112;11.930;2022-11-15T15:18:02;8.90;99.90
27801;DHT22;15181;49.112;11.930;2022-11-15T15:20:30;8.80;99.90
27801;DHT22;15181;49.112;11.930;2022-11-15T15:22:57;8.70;99.90
27801;DHT22;15181;49.112;11.930;2022-11-15T15:25:28;8.50;99.90
27801;DHT22;15181;49.112;11.930;2022-11-15T15:27:56;8.50;99.90
27801;DHT22;15181;49.112;11.930;2022-11-15T15:30:24;8.40;99.90
27801;DHT22;15181;49.112;11.930;2022-11-15T15:32:53;8.40;99.90
27801;DHT22;15181;49.112;11.930;2022-11-15T15:35:22;8.30;99.90
27801;DHT22;15181;49.112;11.930;2022-11-15T15:37:50;8.10;99.90
27801;DHT22;15181;49.112;11.930;2022-11-15T15:40:19;8.00;99.90
27801;DHT22;15181;49.112;11.930;2022-11-15T15:42:47;7.80;99.90
27801;DHT22;15181;49.112;11.930;2022-11-15T15:45:15;7.70;99.90
27801;DHT22;15181;49.112;11.930;2022-11-15T15:47:43;7.70;99.90
27801;DHT22;15181;49.112;11.930;2022-11-15T15:50:22;7.70;99.90
27801;DHT22;15181;49.112;11.930;2022-11-15T15:52:50;7.70;99.90
27801;DHT22;15181;49.112;11.930;2022-11-15T15:55:18;7.60;99.90
27801;DHT22;15181;49.112;11.930;2022-11-15T15:57:45;7.50;99.90
27801;DHT22;15181;49.112;11.930;2022-11-15T16:00:13;7.50;99.90
27801;DHT22;15181;49.112;11.930;2022-11-15T16:02:40;7.50;99.90
27801;DHT22;15181;49.112;11.930;2022-11-15T16:05:08;7.40;99.90
27801;DHT22;15181;49.112;11.930;2022-11-15T16:07:38;7.40;99.90
27801;DHT22;15181;49.112;11.930;2022-11-15T16:10:21;7.30;99.90
27801;DHT22;15181;49.112;11.930;2022-11-15T16:12:48;7.10;99.90